Time;durP1;ratioP1;P1;durP2;ratioP2;P2;SDS_P1;SDS_P2;PMS_P1;PMS_P2;Temp;Humidity;BMP_temperature;BMP_pressure;BME280_temperature;BME280_humidity;BME280_pressure;Samples;Min_cycle;Max_cycle;Signal;HPM_P1;HPM_P2
2022/03/28 00:01:46;;;;;;;56.67;23.15;;;6.20;99.90;;;;;;5048673;28;20059;-78
2022/03/28 00:04:11;;;;;;;76.70;26.40;;;6.20;99.90;;;;;;5048922;28;20040;-79
2022/03/28 00:06:37;;;;;;;71.25;26.05;;;6.10;99.90;;;;;;5048921;28;20110;-78
2022/03/28 00:09:05;;;;;;;67.78;26.25;;;6.10;99.90;;;;;;5050510;28;20056;-79
2022/03/28 00:11:31;;;;;;;66.18;24.63;;;6.10;99.90;;;;;;5048455;28;20044;-78
2022/03/28 00:13:56;;;;;;;50.80;23.88;;;6.10;99.90;;;;;;5047206;28;20041;-78
2022/03/28 00:16:22;;;;;;;64.15;25.17;;;6.10;99.90;;;;;;5052680;28;20128;-79
2022/03/28 00:18:47;;;;;;;56.42;22.98;;;6.10;99.90;;;;;;5053625;28;20079;-79
2022/03/28 00:21:13;;;;;;;53.53;24.33;;;6.10;99.90;;;;;;5051293;28;20166;-79
2022/03/28 00:23:39;;;;;;;61.67;26.85;;;6.10;99.90;;;;;;5052377;28;20379;-79
2022/03/28 00:26:04;;;;;;;79.68;29.10;;;6.10;99.90;;;;;;5051426;28;20041;-78
2022/03/28 00:28:30;;;;;;;74.18;29.25;;;6.10;99.90;;;;;;5049704;28;20051;-79
2022/03/28 00:30:55;;;;;;;62.03;28.83;;;6.10;99.90;;;;;;5020291;28;20040;-79
2022/03/28 00:33:21;;;;;;;75.10;29.15;;;6.20;99.90;;;;;;5051479;28;20426;-79
2022/03/28 00:35:46;;;;;;;73.70;29.70;;;6.20;99.90;;;;;;5050320;28;20037;-80
2022/03/28 00:38:12;;;;;;;80.63;31.92;;;6.20;99.90;;;;;;5050536;28;20425;-79
2022/03/28 00:40:39;;;;;;;90.53;34.97;;;6.20;99.90;;;;;;5049837;28;20072;-79
2022/03/28 00:43:08;;;;;;;106.38;34.35;;;6.20;99.90;;;;;;5033316;28;20037;-79
2022/03/28 00:45:35;;;;;;;70.82;34.45;;;6.20;99.90;;;;;;5049640;28;20456;-79
2022/03/28 00:48:01;;;;;;;112.80;37.67;;;6.20;99.90;;;;;;5049477;28;20048;-79
2022/03/28 00:50:30;;;;;;;79.65;36.67;;;6.20;99.90;;;;;;5032180;28;20037;-79
2022/03/28 00:52:57;;;;;;;76.60;35.40;;;6.30;99.90;;;;;;5049677;28;20041;-79
2022/03/28 00:55:23;;;;;;;92.10;35.20;;;6.40;99.90;;;;;;5028300;28;20073;-79
2022/03/28 00:57:49;;;;;;;79.05;33.47;;;6.30;99.90;;;;;;5048762;28;20135;-79
2022/03/28 01:00:15;;;;;;;139.27;38.55;;;6.30;99.90;;;;;;5049584;28;20636;-79
2022/03/28 01:02:41;;;;;;;86.30;36.53;;;6.30;99.90;;;;;;5038378;28;20540;-79
2022/03/28 01:05:07;;;;;;;141.05;36.33;;;6.30;99.90;;;;;;5051392;28;20025;-79
2022/03/28 01:07:33;;;;;;;91.70;32.53;;;6.20;99.90;;;;;;5051551;28;20064;-79
2022/03/28 01:10:00;;;;;;;68.18;30.40;;;6.10;99.90;;;;;;5051304;28;20037;-79
2022/03/28 01:12:27;;;;;;;61.05;30.40;;;6.10;99.90;;;;;;5036157;28;20463;-79
2022/03/28 01:14:53;;;;;;;53.55;28.40;;;6.10;99.90;;;;;;5051949;28;20091;-80
2022/03/28 01:20:05;;;;;;;46.22;26.42;;;6.10;99.90;;;;;;5049770;28;20049;-79
2022/03/28 01:22:30;;;;;;;50.67;27.15;;;6.20;99.90;;;;;;5033218;28;20041;-80
2022/03/28 01:25:01;;;;;;;34.10;21.92;;;6.20;99.90;;;;;;5052454;28;20107;-79
2022/03/28 01:27:27;;;;;;;37.65;23.15;;;6.30;99.90;;;;;;5052126;28;20032;-79
2022/03/28 01:29:53;;;;;;;36.22;23.48;;;6.20;99.90;;;;;;5049165;28;20048;-78
2022/03/28 01:32:18;;;;;;;35.17;22.05;;;6.20;99.90;;;;;;5030942;28;20041;-79
2022/03/28 01:34:44;;;;;;;37.60;22.80;;;6.10;99.90;;;;;;5051685;28;20048;-78
2022/03/28 01:37:09;;;;;;;37.83;23.58;;;6.20;99.90;;;;;;5051041;28;20080;-78
2022/03/28 01:39:35;;;;;;;37.67;23.75;;;6.20;99.90;;;;;;5051805;28;20124;-78
2022/03/28 01:42:00;;;;;;;32.95;21.13;;;6.30;99.90;;;;;;5051692;28;20059;-78
2022/03/28 01:44:26;;;;;;;34.25;22.27;;;6.30;99.90;;;;;;5052314;28;20076;-78
2022/03/28 01:46:52;;;;;;;33.72;23.00;;;6.30;99.90;;;;;;5045110;28;20040;-79
2022/03/28 01:49:19;;;;;;;34.90;23.85;;;6.40;99.90;;;;;;5038019;28;20064;-78
2022/03/28 01:51:46;;;;;;;39.08;23.27;;;6.40;99.90;;;;;;5051746;28;20049;-79
2022/03/28 01:54:12;;;;;;;32.53;22.05;;;6.30;99.90;;;;;;5051432;28;20049;-79
2022/03/28 01:56:39;;;;;;;33.25;22.98;;;6.40;99.90;;;;;;5050953;28;20048;-79
2022/03/28 01:59:06;;;;;;;36.17;22.38;;;6.40;99.90;;;;;;5050928;28;20040;-79
2022/03/28 02:01:33;;;;;;;28.88;20.10;;;6.30;99.90;;;;;;5033694;28;20289;-79
2022/03/28 02:03:58;;;;;;;30.85;20.73;;;6.30;99.90;;;;;;5044393;28;20078;-79
2022/03/28 02:06:24;;;;;;;29.52;19.67;;;6.30;99.90;;;;;;5035422;28;20076;-79
2022/03/28 02:08:50;;;;;;;29.08;20.20;;;6.40;99.90;;;;;;5051381;28;20032;-80
2022/03/28 02:11:16;;;;;;;33.85;20.27;;;6.50;99.90;;;;;;5048557;28;20098;-79
2022/03/28 02:13:41;;;;;;;30.10;20.52;;;6.40;99.90;;;;;;5037443;28;20124;-79
2022/03/28 02:16:07;;;;;;;29.63;20.58;;;6.40;99.90;;;;;;5050552;28;20051;-79
2022/03/28 02:18:33;;;;;;;29.20;21.50;;;6.50;99.90;;;;;;5034422;28;20432;-79
2022/03/28 02:20:58;;;;;;;27.25;20.23;;;6.50;99.90;;;;;;5051017;28;20047;-79
2022/03/28 02:23:24;;;;;;;30.52;19.45;;;6.50;99.90;;;;;;5040416;28;20041;-79
2022/03/28 02:25:50;;;;;;;28.75;20.92;;;6.50;99.90;;;;;;5047841;28;20561;-79
2022/03/28 02:28:15;;;;;;;27.25;20.88;;;6.40;99.90;;;;;;5043422;28;20042;-80
2022/03/28 02:30:42;;;;;;;34.53;21.75;;;6.40;99.90;;;;;;5045371;28;20045;-81
2022/03/28 02:33:08;;;;;;;27.40;19.02;;;6.30;99.90;;;;;;5050790;28;20045;-79
2022/03/28 02:35:34;;;;;;;28.17;19.52;;;6.20;99.90;;;;;;5051036;28;20045;-79
2022/03/28 02:38:01;;;;;;;25.45;18.52;;;6.20;99.90;;;;;;5025115;28;20036;-79
2022/03/28 02:40:32;;;;;;;26.58;18.63;;;6.20;99.90;;;;;;5050476;28;20048;-79
2022/03/28 02:43:02;;;;;;;26.83;19.65;;;6.20;99.90;;;;;;5050915;28;20033;-79
2022/03/28 02:45:31;;;;;;;26.13;19.85;;;6.30;99.90;;;;;;5049780;28;20123;-78
2022/03/28 02:47:59;;;;;;;29.70;21.00;;;6.30;99.90;;;;;;5034446;28;20039;-78
2022/03/28 02:50:25;;;;;;;27.70;18.90;;;6.20;99.90;;;;;;5050659;28;20045;-78
2022/03/28 02:52:51;;;;;;;27.45;20.80;;;6.30;99.90;;;;;;5050420;28;20088;-79
2022/03/28 02:55:17;;;;;;;27.33;20.52;;;6.30;99.90;;;;;;5022615;28;20080;-79
2022/03/28 02:57:42;;;;;;;29.38;20.73;;;6.20;99.90;;;;;;5048540;28;20047;-79
2022/03/28 03:00:10;;;;;;;28.23;19.48;;;6.20;99.90;;;;;;5050348;28;20045;-79
2022/03/28 03:02:36;;;;;;;27.50;19.23;;;6.10;99.90;;;;;;5050474;28;20041;-79
2022/03/28 03:05:02;;;;;;;26.08;20.15;;;6.00;99.90;;;;;;5050112;28;20549;-79
2022/03/28 03:07:28;;;;;;;29.48;21.33;;;6.10;99.90;;;;;;5050644;28;20486;-79
2022/03/28 03:09:53;;;;;;;31.35;21.88;;;6.10;99.90;;;;;;5049944;28;20039;-80
2022/03/28 03:12:19;;;;;;;30.23;21.60;;;6.10;99.90;;;;;;5045886;28;20049;-79
2022/03/28 03:14:45;;;;;;;34.72;24.27;;;6.00;99.90;;;;;;5033100;28;20079;-79
2022/03/28 03:17:10;;;;;;;32.83;23.98;;;6.00;99.90;;;;;;5050072;28;20124;-79
2022/03/28 03:19:38;;;;;;;34.42;24.70;;;6.00;99.90;;;;;;5050517;28;20041;-79
2022/03/28 03:22:04;;;;;;;35.75;25.65;;;6.10;99.90;;;;;;5050159;28;20033;-79
2022/03/28 03:24:30;;;;;;;35.58;25.50;;;6.10;99.90;;;;;;5049697;28;20033;-80
2022/03/28 03:26:55;;;;;;;36.22;25.73;;;6.00;99.90;;;;;;5049872;28;20040;-78
2022/03/28 03:29:21;;;;;;;33.10;23.83;;;6.00;99.90;;;;;;5048650;28;20049;-80
2022/03/28 03:31:47;;;;;;;37.03;24.92;;;6.00;99.90;;;;;;5049722;28;20058;-79
2022/03/28 03:34:12;;;;;;;38.95;26.48;;;5.90;99.90;;;;;;5033527;28;20043;-80
2022/03/28 03:36:38;;;;;;;35.28;26.35;;;5.80;99.90;;;;;;5032635;28;20044;-80
2022/03/28 03:39:04;;;;;;;40.45;28.58;;;5.90;99.90;;;;;;5048918;28;20053;-80
2022/03/28 03:41:30;;;;;;;43.05;29.42;;;6.00;99.90;;;;;;5049576;28;20467;-80
2022/03/28 03:43:55;;;;;;;42.13;28.85;;;5.90;99.90;;;;;;5048156;28;20045;-80
2022/03/28 03:46:21;;;;;;;41.08;28.13;;;5.80;99.90;;;;;;5038301;28;20033;-80
2022/03/28 03:48:46;;;;;;;41.90;28.83;;;5.80;99.90;;;;;;5050049;28;20045;-80
2022/03/28 03:51:13;;;;;;;43.08;28.80;;;5.80;99.90;;;;;;5038928;28;20060;-80
2022/03/28 03:53:39;;;;;;;37.80;26.55;;;5.80;99.90;;;;;;5049293;28;20056;-80
2022/03/28 03:56:04;;;;;;;37.72;25.60;;;5.70;99.90;;;;;;5032961;28;20037;-80
2022/03/28 03:58:30;;;;;;;33.10;21.88;;;5.70;99.90;;;;;;5049587;28;20041;-80
2022/03/28 04:00:56;;;;;;;27.60;20.38;;;5.80;99.90;;;;;;5049279;28;20045;-80
2022/03/28 04:03:21;;;;;;;27.48;19.60;;;5.70;99.90;;;;;;5034768;28;20072;-79
2022/03/28 04:05:47;;;;;;;25.95;19.17;;;5.60;99.90;;;;;;5037069;28;20052;-79
2022/03/28 04:08:13;;;;;;;28.63;19.45;;;5.60;99.90;;;;;;5049523;28;20033;-79
2022/03/28 04:10:39;;;;;;;24.75;18.17;;;5.70;99.90;;;;;;5032689;28;20048;-79
2022/03/28 04:13:04;;;;;;;26.50;19.00;;;5.70;99.90;;;;;;5050031;28;20049;-79
2022/03/28 04:15:30;;;;;;;24.38;18.52;;;5.70;99.90;;;;;;5049415;28;20041;-80
2022/03/28 04:17:56;;;;;;;30.92;19.75;;;5.70;99.90;;;;;;5049667;28;20069;-80
2022/03/28 04:20:22;;;;;;;33.33;21.05;;;5.70;99.90;;;;;;5046071;28;20053;-80
2022/03/28 04:22:48;;;;;;;31.73;20.30;;;5.70;99.90;;;;;;5043368;28;20380;-80
2022/03/28 04:25:14;;;;;;;30.52;19.70;;;5.70;99.90;;;;;;5045133;28;20037;-80
2022/03/28 04:27:40;;;;;;;31.60;20.27;;;5.70;99.90;;;;;;5045934;28;20041;-80
2022/03/28 04:30:12;;;;;;;35.67;20.63;;;5.70;99.90;;;;;;5020806;28;20570;-80
2022/03/28 04:32:38;;;;;;;33.05;21.05;;;5.70;99.90;;;;;;5030450;28;20029;-80
2022/03/28 04:35:05;;;;;;;34.05;19.25;;;5.60;99.90;;;;;;5046709;28;20056;-80
2022/03/28 04:37:35;;;;;;;33.05;18.65;;;5.60;99.90;;;;;;5047944;28;20041;-80
2022/03/28 04:40:03;;;;;;;32.13;18.42;;;5.50;99.90;;;;;;5047801;28;20048;-80
2022/03/28 04:42:28;;;;;;;29.80;17.02;;;5.50;99.90;;;;;;5048340;28;20826;-80
2022/03/28 04:44:54;;;;;;;30.63;17.52;;;5.40;99.90;;;;;;5048126;28;20041;-80
2022/03/28 04:47:20;;;;;;;78.82;17.30;;;5.40;99.90;;;;;;5048400;28;20037;-80
2022/03/28 04:49:45;;;;;;;30.45;16.98;;;5.30;99.90;;;;;;5048824;28;20033;-79
2022/03/28 04:52:11;;;;;;;32.67;16.75;;;5.40;99.90;;;;;;5047457;28;20499;-80
2022/03/28 04:54:36;;;;;;;27.98;16.30;;;5.50;99.90;;;;;;5050242;28;20045;-80
2022/03/28 04:57:05;;;;;;;33.13;15.13;;;5.50;99.90;;;;;;5050973;28;20067;-80
2022/03/28 04:59:31;;;;;;;25.42;12.77;;;5.60;99.90;;;;;;5052220;28;20052;-80
2022/03/28 05:01:57;;;;;;;20.45;11.20;;;5.40;99.90;;;;;;5035990;28;20045;-80
2022/03/28 05:04:23;;;;;;;18.90;10.05;;;5.40;99.90;;;;;;5048717;28;20031;-80
2022/03/28 05:06:49;;;;;;;17.50;10.10;;;5.40;99.90;;;;;;5053074;23;20143;-79
2022/03/28 05:09:15;;;;;;;15.48;8.52;;;5.10;99.90;;;;;;5058043;28;20049;-79
2022/03/28 05:11:41;;;;;;;12.98;7.03;;;5.10;99.90;;;;;;5054818;28;20048;-80
2022/03/28 05:14:07;;;;;;;9.88;5.75;;;5.00;99.90;;;;;;5036669;28;20558;-79
2022/03/28 05:16:33;;;;;;;7.75;4.90;;;5.00;99.90;;;;;;5070459;28;20075;-80
2022/03/28 05:18:58;;;;;;;9.07;5.20;;;5.00;99.90;;;;;;5066045;28;20052;-80
2022/03/28 05:21:24;;;;;;;10.20;4.95;;;5.10;99.90;;;;;;5067899;28;20071;-80
2022/03/28 05:23:50;;;;;;;10.70;5.50;;;5.00;99.90;;;;;;5059906;28;20047;-80
2022/03/28 05:26:15;;;;;;;8.80;5.38;;;5.00;99.90;;;;;;5057734;28;20541;-79
2022/03/28 05:28:41;;;;;;;9.48;5.25;;;5.10;99.90;;;;;;5070920;28;20028;-80
2022/03/28 05:31:06;;;;;;;10.88;6.07;;;5.10;99.90;;;;;;5060999;28;20565;-79
2022/03/28 05:33:32;;;;;;;11.82;6.22;;;5.10;99.90;;;;;;5055506;28;20044;-79
2022/03/28 05:35:58;;;;;;;11.88;5.93;;;5.10;99.90;;;;;;5071442;28;20043;-79
2022/03/28 05:38:24;;;;;;;13.27;6.47;;;5.10;99.90;;;;;;5071702;28;20071;-79
2022/03/28 05:40:50;;;;;;;9.20;4.70;;;5.20;99.90;;;;;;5040924;28;20130;-79
2022/03/28 05:43:17;;;;;;;6.25;4.13;;;5.30;99.90;;;;;;5068398;28;20505;-79
2022/03/28 05:45:42;;;;;;;6.43;4.53;;;5.40;99.90;;;;;;5069792;28;20021;-79
2022/03/28 05:48:08;;;;;;;8.98;4.30;;;5.40;99.90;;;;;;5071230;28;20059;-80
2022/03/28 05:50:34;;;;;;;8.20;4.43;;;5.50;99.90;;;;;;5071641;28;20059;-78
2022/03/28 05:53:00;;;;;;;7.82;3.80;;;5.50;99.90;;;;;;5070104;28;20048;-80
2022/03/28 05:55:25;;;;;;;5.25;3.83;;;5.60;99.90;;;;;;5052764;28;20471;-79
2022/03/28 05:57:51;;;;;;;4.35;3.50;;;5.60;99.90;;;;;;5069864;28;20036;-79
2022/03/28 06:00:17;;;;;;;4.78;3.72;;;5.50;99.90;;;;;;5071116;28;20131;-79
2022/03/28 06:02:43;;;;;;;6.55;4.30;;;5.50;99.90;;;;;;5059328;28;20048;-79
2022/03/28 06:05:10;;;;;;;10.80;4.60;;;5.50;99.90;;;;;;5071853;28;20036;-79
2022/03/28 06:07:36;;;;;;;7.80;4.75;;;5.30;99.90;;;;;;5060721;28;20052;-80
2022/03/28 06:10:03;;;;;;;8.85;5.47;;;5.30;99.90;;;;;;5035425;28;20040;-79
2022/03/28 06:12:28;;;;;;;8.57;5.05;;;5.30;99.90;;;;;;5054304;28;20045;-79
2022/03/28 06:14:54;;;;;;;12.73;7.05;;;5.30;99.90;;;;;;5060268;28;20048;-80
2022/03/28 06:17:24;;;;;;;10.40;5.90;;;5.20;99.90;;;;;;5054242;28;20078;-80
2022/03/28 06:19:50;;;;;;;13.43;7.40;;;5.20;99.90;;;;;;5092138;28;20088;-80
2022/03/28 06:22:16;;;;;;;15.07;8.75;;;5.30;99.90;;;;;;5071396;28;20078;-80
2022/03/28 06:24:43;;;;;;;20.38;9.93;;;5.40;99.90;;;;;;5080603;28;20063;-80
2022/03/28 06:27:09;;;;;;;21.52;10.52;;;5.50;99.90;;;;;;5068493;28;20041;-80
2022/03/28 06:29:35;;;;;;;27.42;12.13;;;5.40;99.90;;;;;;5071300;28;20407;-80
2022/03/28 06:32:01;;;;;;;30.08;13.60;;;5.30;99.90;;;;;;5073588;28;20036;-80
2022/03/28 06:34:26;;;;;;;33.25;14.80;;;5.20;99.90;;;;;;5058678;28;20496;-80
2022/03/28 06:36:52;;;;;;;38.13;16.10;;;5.30;99.90;;;;;;5070781;28;20044;-79
2022/03/28 06:39:17;;;;;;;41.78;17.33;;;5.40;99.90;;;;;;5070766;28;20101;-80
2022/03/28 06:41:43;;;;;;;38.78;16.73;;;5.40;99.90;;;;;;5069698;28;20406;-79
2022/03/28 06:44:11;;;;;;;43.67;18.98;;;5.40;99.90;;;;;;5067775;28;20064;-79
2022/03/28 06:46:39;;;;;;;38.92;18.23;;;5.40;99.90;;;;;;5067935;28;20773;-80
2022/03/28 06:49:05;;;;;;;41.85;21.25;;;5.50;99.90;;;;;;5081847;28;20046;-80
2022/03/28 06:51:30;;;;;;;39.63;20.77;;;5.60;99.90;;;;;;5071409;28;20431;-80
2022/03/28 06:53:56;;;;;;;37.92;20.48;;;5.80;99.90;;;;;;5070527;28;20043;-80
2022/03/28 06:56:21;;;;;;;42.50;21.23;;;5.80;99.90;;;;;;5049910;28;20059;-80
2022/03/28 06:58:47;;;;;;;37.90;20.08;;;5.80;99.90;;;;;;5041943;28;20067;-80
2022/03/28 07:01:13;;;;;;;41.40;20.77;;;5.90;99.90;;;;;;5042778;28;20153;-80
2022/03/28 07:03:38;;;;;;;44.60;21.48;;;6.00;99.90;;;;;;5056707;28;20032;-80
2022/03/28 07:06:04;;;;;;;48.78;22.17;;;5.80;99.90;;;;;;5034403;28;20092;-80
2022/03/28 07:08:30;;;;;;;42.25;20.27;;;5.80;99.90;;;;;;5052571;28;20044;-79
2022/03/28 07:10:56;;;;;;;39.08;20.75;;;5.80;99.90;;;;;;5071675;28;20044;-79
2022/03/28 07:13:22;;;;;;;37.42;19.95;;;5.90;99.90;;;;;;5075093;28;20107;-79
2022/03/28 07:15:48;;;;;;;31.77;19.63;;;5.90;99.90;;;;;;5069688;28;20724;-79
2022/03/28 07:18:14;;;;;;;32.63;20.40;;;5.90;99.90;;;;;;5058591;28;20076;-81
2022/03/28 07:20:43;;;;;;;27.98;17.70;;;5.90;99.90;;;;;;5086632;28;20086;-79
2022/03/28 07:23:09;;;;;;;29.10;18.33;;;6.10;99.90;;;;;;5060872;28;20094;-79
2022/03/28 07:25:36;;;;;;;25.52;16.48;;;6.10;99.90;;;;;;5052322;28;20047;-79
2022/03/28 07:28:09;;;;;;;25.10;15.95;;;6.20;99.90;;;;;;5052948;28;20410;-79
2022/03/28 07:30:36;;;;;;;28.50;18.13;;;6.30;99.90;;;;;;5050518;28;20452;-79
2022/03/28 07:33:02;;;;;;;27.30;17.27;;;6.40;99.90;;;;;;5055884;28;20048;-80
2022/03/28 07:35:29;;;;;;;24.58;15.73;;;6.40;99.90;;;;;;5049539;28;20379;-80
2022/03/28 07:37:55;;;;;;;29.48;15.73;;;6.50;99.90;;;;;;5058129;28;20041;-79
2022/03/28 07:40:21;;;;;;;20.90;14.50;;;6.40;99.90;;;;;;5046411;28;20090;-79
2022/03/28 07:42:46;;;;;;;17.63;12.85;;;6.50;99.90;;;;;;5048236;28;20035;-78
2022/03/28 07:45:14;;;;;;;18.70;13.55;;;6.60;99.90;;;;;;5067138;28;20037;-79
2022/03/28 07:47:43;;;;;;;19.55;13.68;;;6.70;99.90;;;;;;5038003;28;20470;-79
2022/03/28 07:50:10;;;;;;;16.95;13.35;;;6.70;99.90;;;;;;5045416;28;20037;-79
2022/03/28 07:52:35;;;;;;;16.80;13.43;;;6.80;99.90;;;;;;5069283;28;20486;-78
2022/03/28 07:55:02;;;;;;;20.42;14.73;;;6.80;99.90;;;;;;5058967;28;20029;-79
2022/03/28 07:57:28;;;;;;;19.92;14.82;;;6.60;99.90;;;;;;5056727;28;20067;-79
2022/03/28 07:59:54;;;;;;;23.35;15.23;;;6.50;99.90;;;;;;5050078;28;20071;-79
2022/03/28 08:02:19;;;;;;;22.00;14.82;;;6.60;99.90;;;;;;5052652;28;20076;-79
2022/03/28 08:04:45;;;;;;;20.88;15.25;;;6.70;99.90;;;;;;5069907;28;20040;-79
2022/03/28 08:07:12;;;;;;;20.75;14.32;;;6.80;99.90;;;;;;5066866;28;20111;-80
2022/03/28 08:09:39;;;;;;;21.10;16.15;;;6.90;99.90;;;;;;5055162;28;20081;-78
2022/03/28 08:12:06;;;;;;;23.85;16.63;;;6.80;99.90;;;;;;5043926;28;20060;-78
2022/03/28 08:14:32;;;;;;;23.80;16.02;;;6.80;99.90;;;;;;5060691;28;20107;-79
2022/03/28 08:16:58;;;;;;;21.27;15.93;;;6.90;99.90;;;;;;5050944;28;20067;-79
2022/03/28 08:19:24;;;;;;;22.40;15.32;;;6.80;99.90;;;;;;5050667;28;20187;-80
2022/03/28 08:21:50;;;;;;;19.38;14.52;;;6.80;99.90;;;;;;5051798;28;20480;-81
2022/03/28 08:24:15;;;;;;;18.33;14.45;;;7.00;99.90;;;;;;5044483;28;20032;-81
2022/03/28 08:26:41;;;;;;;17.30;13.10;;;7.00;99.90;;;;;;5065039;28;20028;-80
2022/03/28 08:29:07;;;;;;;16.25;13.32;;;7.10;99.90;;;;;;5066725;28;20116;-80
2022/03/28 08:31:33;;;;;;;16.27;12.60;;;6.80;99.90;;;;;;5066987;28;20052;-80
2022/03/28 08:33:58;;;;;;;16.08;13.23;;;6.90;99.90;;;;;;5070518;28;20094;-80
2022/03/28 08:36:24;;;;;;;15.75;12.95;;;6.80;99.90;;;;;;5070124;28;20043;-79
2022/03/28 08:38:49;;;;;;;18.15;13.07;;;6.80;99.90;;;;;;5072098;28;20131;-79
2022/03/28 08:41:18;;;;;;;17.08;12.27;;;6.90;99.90;;;;;;5054976;28;20390;-79
2022/03/28 08:43:44;;;;;;;15.02;12.13;;;6.90;99.90;;;;;;5069454;28;20551;-80
2022/03/28 08:46:10;;;;;;;15.95;12.98;;;6.80;99.90;;;;;;5071464;28;20375;-80
2022/03/28 08:48:40;;;;;;;14.90;12.70;;;7.00;99.90;;;;;;5070370;28;20052;-79
2022/03/28 08:51:11;;;;;;;16.25;12.68;;;7.00;99.90;;;;;;5064914;28;20704;-80
2022/03/28 08:53:37;;;;;;;16.10;13.38;;;7.00;99.90;;;;;;5070891;28;20478;-79
2022/03/28 08:56:04;;;;;;;15.70;13.35;;;6.80;99.90;;;;;;5055653;28;20493;-80
2022/03/28 08:58:30;;;;;;;13.85;11.85;;;6.90;99.90;;;;;;5071633;28;20491;-79
2022/03/28 09:00:55;;;;;;;13.70;11.95;;;6.90;99.90;;;;;;5071353;28;20135;-79
2022/03/28 09:03:38;;;;;;;13.23;10.50;;;6.90;99.90;;;;;;5072490;28;20040;-79
2022/03/28 09:06:32;;;;;;;11.65;9.90;;;6.80;99.90;;;;;;5035943;28;20532;-78
2022/03/28 09:09:18;;;;;;;10.40;9.30;;;6.70;99.90;;;;;;5040754;28;20461;-79
2022/03/28 09:11:46;;;;;;;10.32;9.15;;;6.70;99.90;;;;;;5059623;28;20037;-80
2022/03/28 09:14:22;;;;;;;10.18;8.45;;;6.90;99.90;;;;;;5062258;28;20131;-80
2022/03/28 09:17:10;;;;;;;9.07;7.85;;;6.80;99.90;;;;;;5062950;28;20433;-80
2022/03/28 09:19:46;;;;;;;10.63;8.30;;;6.90;99.90;;;;;;5069287;28;20059;-79
2022/03/28 09:22:14;;;;;;;9.55;8.60;;;7.10;99.90;;;;;;5060756;28;20044;-80
2022/03/28 09:24:41;;;;;;;8.90;8.00;;;7.20;99.90;;;;;;5065338;28;20463;-79
2022/03/28 09:27:29;;;;;;;9.68;8.32;;;7.00;99.90;;;;;;5061898;28;20036;-79
2022/03/28 09:29:59;;;;;;;11.00;8.63;;;7.10;99.90;;;;;;5070794;28;20421;-79
2022/03/28 09:32:28;;;;;;;11.23;8.98;;;7.10;99.90;;;;;;5068648;28;20036;-80
2022/03/28 09:35:21;;;;;;;10.77;9.30;;;7.30;99.90;;;;;;5069039;28;20049;-80
2022/03/28 09:37:51;;;;;;;10.32;9.23;;;7.70;99.90;;;;;;5066387;28;20139;-79
2022/03/28 09:40:40;;;;;;;12.13;10.07;;;7.90;99.90;;;;;;5040697;28;20646;-80
2022/03/28 09:43:21;;;;;;;11.48;9.88;;;7.80;99.90;;;;;;5064841;28;20090;-80
2022/03/28 09:45:50;;;;;;;11.05;9.40;;;7.70;99.90;;;;;;5062719;28;20090;-81
2022/03/28 09:48:16;;;;;;;10.88;9.35;;;7.80;99.90;;;;;;5042910;28;20489;-81
2022/03/28 09:50:46;;;;;;;10.63;9.27;;;8.10;99.90;;;;;;5064374;28;20657;-81
2022/03/28 09:53:22;;;;;;;11.98;10.02;;;8.30;99.90;;;;;;5048439;28;20124;-79
2022/03/28 09:55:56;;;;;;;11.13;9.93;;;8.00;99.90;;;;;;5064342;28;20036;-80
2022/03/28 09:58:48;;;;;;;11.57;8.85;;;8.20;99.90;;;;;;5065067;28;20093;-80
2022/03/28 10:01:20;;;;;;;11.10;9.90;;;8.40;99.90;;;;;;5053474;28;20043;-80
2022/03/28 10:03:52;;;;;;;11.32;9.82;;;8.50;99.90;;;;;;5069069;28;20467;-81
2022/03/28 10:06:18;;;;;;;11.13;9.75;;;8.70;99.90;;;;;;5063446;28;20167;-80
2022/03/28 10:08:45;;;;;;;11.90;10.57;;;8.80;99.90;;;;;;5054852;28;20496;-81
2022/03/28 10:11:11;;;;;;;14.70;10.50;;;8.50;99.90;;;;;;5071129;28;20044;-81
2022/03/28 10:13:38;;;;;;;11.80;9.77;;;8.20;99.90;;;;;;5066389;28;20545;-80
2022/03/28 10:16:04;;;;;;;11.85;10.65;;;8.40;99.90;;;;;;5066835;28;20067;-80
2022/03/28 10:18:32;;;;;;;13.48;11.35;;;8.60;99.90;;;;;;5071945;28;20051;-80
2022/03/28 10:21:01;;;;;;;14.45;11.82;;;8.60;99.90;;;;;;5050943;28;20496;-80
2022/03/28 10:23:33;;;;;;;11.82;10.23;;;8.40;99.90;;;;;;5070840;28;20049;-80
2022/03/28 10:26:01;;;;;;;12.65;10.73;;;8.40;99.90;;;;;;5067889;28;20032;-80
2022/03/28 10:28:27;;;;;;;12.95;10.55;;;8.60;99.90;;;;;;5070486;28;20044;-80
2022/03/28 10:31:31;;;;;;;11.35;10.15;;;8.60;99.90;;;;;;5043571;28;20041;-79
2022/03/28 10:33:57;;;;;;;12.27;10.18;;;8.80;99.90;;;;;;5026151;28;20098;-80
2022/03/28 10:36:32;;;;;;;11.00;9.88;;;9.10;99.90;;;;;;5050041;28;20099;-80
2022/03/28 10:39:35;;;;;;;11.57;10.02;;;9.20;99.90;;;;;;5061427;28;20070;-81
2022/03/28 10:42:13;;;;;;;11.35;9.95;;;9.40;99.90;;;;;;5059720;28;20136;-80
2022/03/28 10:45:07;;;;;;;11.02;9.82;;;9.40;99.90;;;;;;5071683;28;20131;-80
2022/03/28 10:47:43;;;;;;;11.30;9.13;;;9.30;99.90;;;;;;5062643;28;20041;-80
2022/03/28 10:50:12;;;;;;;10.70;9.60;;;9.50;99.90;;;;;;5059056;28;20047;-80
2022/03/28 10:52:38;;;;;;;11.95;10.70;;;9.40;99.90;;;;;;5046214;28;20422;-81
2022/03/28 10:55:09;;;;;;;11.98;10.65;;;9.30;99.90;;;;;;5059526;28;20044;-81
2022/03/28 10:57:35;;;;;;;15.95;10.30;;;9.60;99.90;;;;;;5070298;28;20033;-80
2022/03/28 11:00:09;;;;;;;12.38;11.07;;;9.80;99.90;;;;;;5068990;28;20041;-80
2022/03/28 11:02:35;;;;;;;12.45;11.10;;;9.70;99.90;;;;;;5069606;28;20048;-81
2022/03/28 11:05:12;;;;;;;12.02;10.18;;;9.90;99.90;;;;;;5072891;28;20135;-80
2022/03/28 11:07:38;;;;;;;13.30;11.10;;;9.70;99.90;;;;;;5081061;28;20056;-80
2022/03/28 11:10:08;;;;;;;11.15;10.05;;;9.90;99.90;;;;;;5067829;28;20048;-80
2022/03/28 11:12:35;;;;;;;10.73;9.65;;;10.00;99.90;;;;;;5069518;28;20044;-80
2022/03/28 11:15:23;;;;;;;12.40;11.02;;;10.10;99.90;;;;;;5069793;28;20044;-80
2022/03/28 11:17:52;;;;;;;12.20;11.00;;;9.90;99.90;;;;;;5070355;28;20044;-80
2022/03/28 11:20:18;;;;;;;12.23;10.88;;;9.60;99.90;;;;;;5068854;28;20044;-80
2022/03/28 11:22:44;;;;;;;13.25;11.23;;;10.10;99.90;;;;;;5069781;28;20036;-80
2022/03/28 11:25:42;;;;;;;12.85;11.57;;;9.80;99.90;;;;;;5066266;28;20417;-80
2022/03/28 11:28:23;;;;;;;12.70;11.40;;;9.60;99.90;;;;;;5034473;28;20029;-80
2022/03/28 11:31:08;;;;;;;13.45;11.43;;;10.10;99.90;;;;;;5065216;28;20235;-81
2022/03/28 11:33:39;;;;;;;12.32;11.13;;;10.40;99.90;;;;;;5048667;28;20055;-80
2022/03/28 11:36:11;;;;;;;12.57;11.38;;;10.20;99.90;;;;;;5056490;28;20127;-80
2022/03/28 11:38:51;;;;;;;12.98;11.68;;;9.90;99.90;;;;;;5062680;28;20032;-81
2022/03/28 11:41:22;;;;;;;13.88;12.38;;;10.00;99.90;;;;;;5066392;28;20045;-81
2022/03/28 11:43:52;;;;;;;12.30;10.98;;;9.70;99.90;;;;;;5053421;28;20043;-80
2022/03/28 11:46:19;;;;;;;13.80;12.40;;;10.00;99.90;;;;;;5068925;28;20502;-81
2022/03/28 11:48:58;;;;;;;13.43;12.10;;;10.30;99.90;;;;;;5078325;28;20370;-81
2022/03/28 11:51:27;;;;;;;12.70;11.07;;;10.40;99.90;;;;;;5065748;28;20055;-80
2022/03/28 11:53:53;;;;;;;13.90;12.23;;;10.70;99.90;;;;;;5070683;28;20041;-79
2022/03/28 11:56:24;;;;;;;13.65;12.25;;;11.00;99.90;;;;;;5054905;28;20043;-79
2022/03/28 11:58:49;;;;;;;14.07;11.57;;;11.10;99.90;;;;;;5070573;28;20056;-80
2022/03/28 12:01:16;;;;;;;12.95;11.52;;;11.30;99.90;;;;;;5069064;28;20040;-79
2022/03/28 12:03:49;;;;;;;13.18;11.77;;;11.60;99.90;;;;;;5064109;28;20506;-81
2022/03/28 12:06:36;;;;;;;13.45;12.05;;;11.80;99.90;;;;;;5069992;28;20579;-79
2022/03/28 12:09:06;;;;;;;12.75;11.45;;;11.20;99.90;;;;;;5067645;28;20049;-79
2022/03/28 12:11:34;;;;;;;12.55;11.35;;;11.70;99.90;;;;;;5062613;28;20040;-79
2022/03/28 12:14:00;;;;;;;13.07;11.68;;;11.70;99.90;;;;;;5067072;28;20505;-80
2022/03/28 12:16:25;;;;;;;14.60;13.23;;;12.10;99.90;;;;;;5066765;28;20040;-79
2022/03/28 12:18:58;;;;;;;12.93;11.63;;;11.50;99.90;;;;;;5069091;28;20093;-79
2022/03/28 12:21:26;;;;;;;13.43;12.02;;;11.60;99.90;;;;;;5058535;28;20067;-79
2022/03/28 12:23:52;;;;;;;12.75;11.45;;;11.80;99.90;;;;;;5061040;28;20862;-79
2022/03/28 12:26:17;;;;;;;13.88;12.30;;;12.00;99.90;;;;;;5065444;28;20039;-79
2022/03/28 12:28:46;;;;;;;13.77;12.48;;;12.10;99.90;;;;;;5063423;28;20471;-80
2022/03/28 12:31:12;;;;;;;13.45;12.15;;;11.80;99.90;;;;;;5068254;28;20762;-80
2022/03/28 12:33:40;;;;;;;13.20;11.82;;;12.10;99.90;;;;;;5068341;28;20101;-79
2022/03/28 12:36:09;;;;;;;14.15;12.35;;;12.00;99.90;;;;;;5050752;28;20040;-80
2022/03/28 12:38:36;;;;;;;14.02;12.45;;;11.70;99.90;;;;;;5061103;28;20094;-79
2022/03/28 12:41:05;;;;;;;12.93;11.40;;;11.90;99.90;;;;;;5067671;28;20089;-79
2022/03/28 12:43:33;;;;;;;13.88;12.45;;;11.90;99.90;;;;;;5066908;28;20463;-79
2022/03/28 12:46:04;;;;;;;14.13;12.65;;;11.90;99.90;;;;;;5061090;28;20032;-79